createdAt,value
2018-04-17T00:00:35.073Z,68.14
2018-04-17T00:03:02.656Z,67.89
2018-04-17T00:05:30.226Z,67.69
2018-04-17T00:07:57.913Z,66.43
2018-04-17T00:10:25.869Z,66.47
2018-04-17T00:12:53.461Z,66.63
2018-04-17T00:15:21.172Z,67.25
2018-04-17T00:17:48.756Z,67.39
2018-04-17T00:20:16.336Z,66.78
2018-04-17T00:22:44.924Z,66.82
2018-04-17T00:25:12.569Z,66.24
2018-04-17T00:27:40.379Z,66.43
2018-04-17T00:30:08.185Z,66.87
2018-04-17T00:32:35.776Z,66.29
2018-04-17T00:35:03.352Z,65.11
2018-04-17T00:37:31.144Z,65.30
2018-04-17T00:39:58.732Z,65.11
2018-04-17T00:42:26.327Z,63.59
2018-04-17T00:44:54.021Z,64.01
2018-04-17T00:47:21.604Z,65.05
2018-04-17T00:49:49.179Z,63.72
2018-04-17T00:52:16.875Z,62.81
2018-04-17T00:54:44.556Z,63.83
2018-04-17T00:57:12.201Z,63.65
2018-04-17T00:59:39.846Z,63.34
2018-04-17T01:02:07.491Z,63.35
2018-04-17T01:04:35.148Z,64.27
2018-04-17T01:07:02.924Z,64.38
2018-04-17T01:09:30.508Z,64.35
2018-04-17T01:11:58.087Z,62.57
2018-04-17T01:14:25.919Z,62.58
2018-04-17T01:16:53.573Z,62.46
2018-04-17T01:19:21.212Z,63.01
2018-04-17T01:21:48.848Z,64.02
2018-04-17T01:24:16.553Z,63.97
2018-04-17T01:26:44.143Z,63.75
2018-04-17T01:29:11.841Z,63.41
2018-04-17T01:31:39.480Z,62.15
2018-04-17T01:34:07.214Z,62.62
2018-04-17T01:36:34.894Z,62.99
2018-04-17T01:39:02.538Z,62.41
2018-04-17T01:41:30.128Z,62.84
2018-04-17T01:43:57.996Z,63.18
2018-04-17T01:46:25.586Z,63.97
2018-04-17T01:48:53.179Z,64.26
2018-04-17T01:51:20.979Z,59.14
2018-04-17T01:53:48.574Z,57.41
2018-04-17T01:56:16.266Z,57.43
2018-04-17T01:58:44.006Z,55.93
2018-04-17T02:01:11.657Z,52.75
2018-04-17T02:03:39.280Z,51.90
2018-04-17T02:06:07.010Z,51.05
2018-04-17T02:08:34.586Z,49.97
2018-04-17T02:11:02.196Z,48.65
2018-04-17T02:13:29.916Z,47.02
2018-04-17T02:15:57.496Z,47.25
2018-04-17T02:18:25.138Z,47.29
2018-04-17T02:20:52.822Z,51.33
2018-04-17T02:23:20.523Z,55.27
2018-04-17T02:25:48.318Z,56.08
2018-04-17T02:30:49.869Z,56.84
2018-04-17T02:33:17.541Z,57.23
2018-04-17T02:35:45.155Z,57.98
2018-04-17T02:38:12.904Z,58.13
2018-04-17T02:40:40.782Z,57.34
2018-04-17T02:43:08.509Z,58.13
2018-04-17T02:45:36.105Z,58.02
2018-04-17T02:48:03.776Z,61.17
2018-04-17T02:50:31.388Z,61.64
2018-04-17T02:52:59.003Z,61.48
2018-04-17T02:55:26.724Z,62.79
2018-04-17T02:57:54.328Z,63.00
2018-04-17T03:00:21.972Z,64.26
2018-04-17T03:02:49.661Z,63.94
2018-04-17T03:05:17.332Z,64.24
2018-04-17T03:07:44.992Z,64.49
2018-04-17T03:10:12.705Z,65.18
2018-04-17T03:12:40.370Z,66.22
2018-04-17T03:15:08.062Z,66.19
2018-04-17T03:17:35.915Z,65.33
2018-04-17T03:20:03.629Z,65.53
2018-04-17T03:22:31.386Z,66.03
2018-04-17T03:24:59.141Z,66.01
2018-04-17T03:27:27.744Z,66.42
2018-04-17T03:29:55.479Z,65.47
2018-04-17T03:32:23.221Z,66.80
2018-04-17T03:34:50.818Z,66.73
2018-04-17T03:37:18.445Z,66.74
2018-04-17T03:39:46.080Z,66.06
2018-04-17T03:42:13.757Z,66.32
2018-04-17T03:44:42.121Z,66.76
2018-04-17T03:47:09.804Z,66.82
2018-04-17T03:49:37.446Z,66.88
2018-04-17T03:52:05.668Z,65.95
2018-04-17T03:54:33.359Z,66.67
2018-04-17T03:57:01.704Z,67.40
2018-04-17T03:59:29.280Z,66.74
2018-04-17T04:01:56.956Z,67.06
2018-04-17T04:04:24.591Z,66.40
2018-04-17T04:06:52.194Z,67.46
2018-04-17T04:09:19.990Z,68.10
2018-04-17T04:11:47.649Z,67.47
2018-04-17T04:14:15.233Z,67.66
2018-04-17T04:16:54.728Z,68.46
2018-04-17T04:19:33.924Z,67.61
2018-04-17T04:22:13.328Z,68.61
2018-04-17T04:24:52.616Z,68.38
2018-04-17T04:27:20.395Z,68.98
2018-04-17T04:29:48.684Z,68.50
2018-04-17T04:32:16.259Z,67.31
2018-04-17T04:34:43.899Z,66.79
2018-04-17T04:37:12.239Z,67.92
2018-04-17T04:39:39.874Z,67.55
2018-04-17T04:42:07.583Z,67.72
2018-04-17T04:44:35.185Z,67.61
2018-04-17T04:47:02.767Z,67.89
2018-04-17T04:49:30.407Z,67.39
2018-04-17T04:51:58.049Z,67.78
2018-04-17T04:54:25.613Z,67.69
2018-04-17T04:56:53.324Z,67.65
2018-04-17T04:59:20.903Z,67.05
2018-04-17T05:01:48.491Z,67.18
2018-04-17T05:04:16.124Z,67.23
2018-04-17T05:06:43.760Z,67.68
2018-04-17T05:09:11.896Z,66.82
2018-04-17T05:11:39.532Z,66.62
2018-04-17T05:14:07.155Z,66.02
2018-04-17T05:16:35.018Z,65.48
2018-04-17T05:19:02.742Z,64.49
2018-04-17T05:21:30.315Z,64.01
2018-04-17T05:23:57.920Z,64.92
2018-04-17T05:26:25.643Z,64.62
2018-04-17T05:28:53.224Z,63.65
2018-04-17T05:31:20.891Z,64.40
2018-04-17T05:33:48.499Z,62.60
2018-04-17T05:36:16.079Z,62.32
2018-04-17T05:38:43.724Z,63.93
2018-04-17T05:41:11.444Z,63.88
2018-04-17T05:43:39.032Z,62.53
2018-04-17T05:46:06.672Z,64.34
2018-04-17T05:48:34.323Z,64.59
2018-04-17T05:51:01.924Z,66.31
2018-04-17T05:53:29.501Z,66.37
2018-04-17T05:55:57.206Z,66.65
2018-04-17T05:58:24.759Z,66.25
2018-04-17T06:00:52.340Z,66.52
2018-04-17T06:03:19.973Z,65.85
2018-04-17T06:05:47.878Z,64.30
2018-04-17T06:08:15.517Z,62.17
2018-04-17T06:10:43.180Z,61.48
2018-04-17T06:13:11.459Z,64.91
2018-04-17T06:15:39.888Z,67.57
2018-04-17T06:18:07.615Z,70.46
2018-04-17T06:20:35.220Z,69.82
2018-04-17T06:23:02.820Z,70.34
2018-04-17T06:25:30.574Z,72.08
2018-04-17T06:27:58.240Z,69.97
2018-04-17T06:30:25.847Z,69.34
2018-04-17T06:32:53.725Z,69.22
2018-04-17T06:35:21.344Z,67.85
2018-04-17T06:37:48.942Z,68.17
2018-04-17T06:40:16.652Z,68.41
2018-04-17T06:42:44.243Z,68.98
2018-04-17T06:45:11.885Z,68.13
2018-04-17T06:47:39.629Z,67.90
2018-04-17T06:50:07.173Z,66.46
2018-04-17T06:52:34.826Z,67.28
2018-04-17T06:55:02.460Z,67.03
2018-04-17T06:57:30.114Z,67.02
2018-04-17T06:59:57.700Z,66.92
2018-04-17T07:02:25.324Z,66.45
2018-04-17T07:04:52.967Z,66.03
2018-04-17T07:07:20.548Z,66.27
2018-04-17T07:09:48.262Z,67.21
2018-04-17T07:12:16.388Z,68.64
2018-04-17T07:14:44.063Z,66.68
2018-04-17T07:17:11.700Z,67.77
2018-04-17T07:19:39.337Z,65.37
2018-04-17T07:22:07.918Z,64.91
2018-04-17T07:24:35.632Z,63.65
2018-04-17T07:27:03.216Z,64.38
2018-04-17T07:29:30.820Z,62.29
2018-04-17T07:31:59.304Z,63.33
2018-04-17T07:34:26.936Z,63.38
2018-04-17T07:36:54.577Z,62.58
2018-04-17T07:39:22.251Z,62.70
2018-04-17T07:41:50.524Z,60.95
2018-04-17T07:44:18.200Z,62.67
2018-04-17T07:46:46.081Z,61.29
2018-04-17T07:49:13.728Z,60.60
2018-04-17T07:51:41.300Z,61.04
2018-04-17T07:54:08.937Z,60.24
2018-04-17T07:56:36.580Z,59.60
2018-04-17T07:59:04.241Z,59.33
2018-04-17T08:01:31.952Z,59.08
2018-04-17T08:03:59.601Z,58.78
2018-04-17T08:06:27.207Z,58.07
2018-04-17T08:08:54.934Z,59.28
2018-04-17T08:11:22.596Z,61.66
2018-04-17T08:13:50.223Z,63.08
2018-04-17T08:16:17.858Z,62.94
2018-04-17T08:18:45.437Z,64.54
2018-04-17T08:21:13.019Z,66.20
2018-04-17T08:23:40.742Z,64.53
2018-04-17T08:26:08.335Z,65.74
2018-04-17T08:28:36.004Z,64.09
2018-04-17T08:31:03.800Z,63.59
2018-04-17T08:33:31.388Z,62.80
2018-04-17T08:35:59.325Z,63.87
2018-04-17T08:38:26.973Z,63.53
2018-04-17T08:40:54.616Z,63.16
2018-04-17T08:43:22.265Z,61.19
2018-04-17T08:45:49.949Z,61.09
2018-04-17T08:48:17.593Z,60.76
2018-04-17T08:50:45.187Z,59.88
2018-04-17T08:53:12.811Z,58.66
2018-04-17T08:55:40.404Z,57.05
2018-04-17T08:58:08.065Z,58.99
2018-04-17T09:00:35.776Z,57.50
2018-04-17T09:03:03.429Z,54.60
2018-04-17T09:05:31.052Z,52.94
2018-04-17T09:07:58.691Z,58.16
2018-04-17T09:10:26.277Z,53.98
2018-04-17T09:12:53.876Z,54.22
2018-04-17T09:15:21.577Z,53.97
2018-04-17T09:17:49.163Z,50.33
2018-04-17T09:20:16.753Z,50.26
2018-04-17T09:22:44.444Z,50.58
2018-04-17T09:25:12.118Z,52.17
2018-04-17T09:27:39.725Z,52.64
2018-04-17T09:30:07.490Z,50.20
2018-04-17T09:32:35.080Z,51.21
2018-04-17T09:35:02.696Z,48.19
2018-04-17T09:37:30.597Z,47.28
2018-04-17T09:39:58.195Z,47.82
2018-04-17T09:42:25.802Z,47.71
2018-04-17T09:44:53.461Z,47.52
2018-04-17T09:47:21.092Z,46.64
2018-04-17T09:49:48.757Z,45.68
2018-04-17T09:52:16.452Z,45.50
2018-04-17T09:54:44.040Z,48.11
2018-04-17T09:57:11.624Z,47.78
2018-04-17T09:59:39.349Z,46.66
2018-04-17T10:02:06.936Z,47.75
2018-04-17T10:04:34.507Z,48.41
2018-04-17T10:07:02.129Z,49.33
2018-04-17T10:09:29.765Z,52.17
2018-04-17T10:11:57.402Z,50.49
2018-04-17T10:14:25.044Z,52.81
2018-04-17T10:16:52.684Z,49.65
2018-04-17T10:19:20.295Z,53.43
2018-04-17T10:21:48.158Z,51.70
2018-04-17T10:24:15.826Z,52.75
2018-04-17T10:26:43.469Z,52.56
2018-04-17T10:29:11.945Z,53.00
2018-04-17T10:31:39.575Z,51.45
2018-04-17T10:34:07.173Z,53.91
2018-04-17T10:36:34.804Z,52.46
2018-04-17T10:39:02.664Z,53.07
2018-04-17T10:41:30.232Z,51.13
2018-04-17T10:43:57.854Z,51.74
2018-04-17T10:46:25.560Z,51.98
2018-04-17T10:48:53.124Z,52.82
2018-04-17T10:51:20.789Z,52.97
2018-04-17T10:53:48.411Z,53.47
2018-04-17T10:56:15.991Z,52.89
2018-04-17T10:58:43.727Z,52.30
2018-04-17T11:01:11.380Z,53.25
2018-04-17T11:03:38.961Z,52.33
2018-04-17T11:06:07.438Z,52.05
2018-04-17T11:08:35.041Z,52.35
2018-04-17T11:11:02.622Z,51.71
2018-04-17T11:13:30.345Z,50.94
2018-04-17T11:15:58.580Z,50.18
2018-04-17T11:18:26.160Z,50.03
2018-04-17T11:20:53.888Z,50.51
2018-04-17T11:23:21.481Z,49.61
2018-04-17T11:25:49.130Z,51.01
2018-04-17T11:28:16.845Z,47.52
2018-04-17T11:30:44.505Z,46.49
2018-04-17T11:33:12.101Z,47.24
2018-04-17T11:35:39.748Z,47.19
2018-04-17T11:38:07.337Z,44.94
2018-04-17T11:40:35.149Z,44.86
2018-04-17T11:43:02.876Z,44.75
2018-04-17T11:45:30.461Z,45.36
2018-04-17T11:47:58.038Z,46.31
2018-04-17T11:50:25.692Z,46.59
2018-04-17T11:52:53.280Z,46.09
2018-04-17T11:55:20.856Z,46.48
2018-04-17T11:57:48.653Z,45.14
2018-04-17T12:00:16.305Z,44.86
2018-04-17T12:02:43.951Z,46.45
2018-04-17T12:05:11.743Z,45.99
2018-04-17T12:07:39.357Z,44.50
2018-04-17T12:10:06.967Z,42.90
2018-04-17T12:12:34.643Z,47.07
2018-04-17T12:15:02.226Z,45.39
2018-04-17T12:17:29.795Z,44.38
2018-04-17T12:19:57.496Z,46.02
2018-04-17T12:22:25.137Z,40.90
2018-04-17T12:24:52.716Z,41.27
2018-04-17T12:27:20.407Z,39.24
2018-04-17T12:29:48.079Z,40.84
2018-04-17T12:32:15.696Z,40.09
2018-04-17T12:34:43.413Z,41.81
2018-04-17T12:37:10.983Z,43.45
2018-04-17T12:39:38.555Z,42.56
2018-04-17T12:42:06.465Z,43.96
2018-04-17T12:44:34.048Z,44.09
2018-04-17T12:47:01.644Z,43.32
2018-04-17T12:49:29.272Z,43.90
2018-04-17T12:51:56.869Z,42.74
2018-04-17T12:54:24.479Z,42.48
2018-04-17T12:56:52.123Z,41.72
2018-04-17T12:59:19.756Z,41.72
2018-04-17T13:01:47.378Z,42.98
2018-04-17T13:04:15.065Z,41.88
2018-04-17T13:06:42.643Z,41.63
2018-04-17T13:09:10.272Z,42.57
2018-04-17T13:11:37.987Z,43.20
2018-04-17T13:14:05.624Z,43.71
2018-04-17T13:16:33.983Z,44.46
2018-04-17T13:19:01.756Z,46.43
2018-04-17T13:21:29.390Z,46.70
2018-04-17T13:23:56.962Z,48.35
2018-04-17T13:26:24.702Z,48.22
2018-04-17T13:28:53.037Z,47.16
2018-04-17T13:31:20.636Z,46.18
2018-04-17T13:33:48.312Z,47.44
2018-04-17T13:36:15.944Z,46.07
2018-04-17T13:38:43.609Z,44.64
2018-04-17T13:41:11.296Z,45.66
2018-04-17T13:43:39.516Z,43.91
2018-04-17T13:46:07.106Z,45.67
2018-04-17T13:48:34.770Z,41.86
2018-04-17T13:51:02.412Z,42.69
2018-04-17T13:53:29.997Z,44.42
2018-04-17T13:55:57.636Z,44.41
2018-04-17T13:58:25.220Z,44.02
2018-04-17T14:00:52.861Z,45.46
2018-04-17T14:03:20.490Z,44.18
2018-04-17T14:05:48.103Z,45.34
2018-04-17T14:08:15.692Z,43.02
2018-04-17T14:10:43.386Z,44.40
2018-04-17T14:13:10.964Z,45.63
2018-04-17T14:15:38.599Z,44.19
2018-04-17T14:18:06.329Z,44.69
2018-04-17T14:20:33.979Z,44.95
2018-04-17T14:23:01.578Z,46.46
2018-04-17T14:25:29.342Z,46.72
2018-04-17T14:27:56.910Z,48.79
2018-04-17T14:30:24.549Z,47.35
2018-04-17T14:32:52.328Z,47.05
2018-04-17T14:35:19.979Z,45.16
2018-04-17T14:37:47.632Z,44.38
2018-04-17T14:40:15.357Z,42.93
2018-04-17T14:42:42.956Z,43.99
2018-04-17T14:45:11.399Z,42.86
2018-04-17T14:47:39.109Z,43.43
2018-04-17T14:50:06.699Z,41.69
2018-04-17T14:52:34.310Z,43.04
2018-04-17T14:55:02.056Z,42.50
2018-04-17T14:57:29.731Z,41.63
2018-04-17T14:59:57.377Z,42.85
2018-04-17T15:02:25.016Z,42.10
2018-04-17T15:04:53.161Z,43.08
2018-04-17T15:07:20.816Z,43.20
2018-04-17T15:09:48.522Z,42.74
2018-04-17T15:12:16.127Z,43.19
2018-04-17T15:14:43.711Z,43.43
2018-04-17T15:17:11.467Z,42.93
2018-04-17T15:19:39.126Z,43.49
2018-04-17T15:22:06.724Z,43.33
2018-04-17T15:24:34.355Z,44.77
2018-04-17T15:27:01.959Z,44.13
2018-04-17T15:29:29.572Z,44.70
2018-04-17T15:31:57.204Z,45.19
2018-04-17T15:34:24.813Z,45.43
2018-04-17T15:36:52.408Z,44.25
2018-04-17T15:39:20.058Z,45.90
2018-04-17T15:41:47.696Z,44.61
2018-04-17T15:44:15.345Z,45.11
2018-04-17T15:46:43.060Z,45.00
2018-04-17T15:49:10.661Z,45.83
2018-04-17T15:51:38.263Z,46.60
2018-04-17T15:54:05.993Z,45.31
2018-04-17T15:56:33.636Z,45.84
2018-04-17T15:59:02.004Z,45.10
2018-04-17T16:01:29.767Z,46.67
2018-04-17T16:03:57.372Z,46.66
2018-04-17T16:06:24.966Z,47.07
2018-04-17T16:08:52.698Z,48.03
2018-04-17T16:11:20.284Z,48.28
2018-04-17T16:13:47.937Z,48.88
2018-04-17T16:16:16.255Z,49.59
2018-04-17T16:18:43.906Z,50.93
2018-04-17T16:21:11.506Z,50.93
2018-04-17T16:23:39.168Z,51.00
2018-04-17T16:26:06.776Z,51.68
2018-04-17T16:28:34.385Z,51.57
2018-04-17T16:31:02.335Z,52.68
2018-04-17T16:33:29.985Z,53.39
2018-04-17T16:35:57.629Z,53.63
2018-04-17T16:38:25.341Z,53.67
2018-04-17T16:40:53.035Z,54.02
2018-04-17T16:43:20.700Z,54.57
2018-04-17T16:45:48.453Z,55.75
2018-04-17T16:48:17.068Z,55.97
2018-04-17T16:50:44.653Z,55.94
2018-04-17T16:53:12.272Z,57.06
2018-04-17T16:55:40.543Z,56.46
2018-04-17T16:58:08.118Z,56.47
2018-04-17T17:00:35.867Z,57.17
2018-04-17T17:03:03.465Z,57.38
2018-04-17T17:05:31.116Z,57.40
2018-04-17T17:07:58.833Z,57.85
2018-04-17T17:10:26.477Z,57.86
2018-04-17T17:12:54.124Z,58.07
2018-04-17T17:15:21.840Z,58.72
2018-04-17T17:17:49.419Z,59.01
2018-04-17T17:20:17.014Z,58.74
2018-04-17T17:22:44.749Z,59.43
2018-04-17T17:25:12.438Z,59.14
2018-04-17T17:27:40.028Z,59.21
2018-04-17T17:30:07.832Z,59.66
2018-04-17T17:32:35.494Z,59.68
2018-04-17T17:35:03.063Z,60.29
2018-04-17T17:37:30.780Z,60.65
2018-04-17T17:39:58.364Z,60.94
2018-04-17T17:42:26.000Z,60.73
2018-04-17T17:44:53.627Z,59.78
2018-04-17T17:47:21.235Z,60.51
2018-04-17T17:49:49.073Z,61.21
2018-04-17T17:52:16.776Z,61.17
2018-04-17T17:54:44.417Z,60.79
2018-04-17T17:57:11.997Z,60.59
2018-04-17T17:59:39.673Z,60.75
2018-04-17T18:02:07.307Z,61.46
2018-04-17T18:04:34.916Z,62.22
2018-04-17T18:07:05.573Z,62.34
2018-04-17T18:09:33.225Z,61.85
2018-04-17T18:12:00.801Z,61.26
2018-04-17T18:14:28.456Z,60.81
2018-04-17T18:16:56.048Z,61.78
2018-04-17T18:19:23.620Z,61.91
2018-04-17T18:21:51.315Z,62.32
2018-04-17T18:24:18.976Z,62.32
2018-04-17T18:26:46.580Z,62.69
2018-04-17T18:29:14.340Z,63.02
2018-04-17T18:31:41.998Z,62.78
2018-04-17T18:34:09.608Z,63.24
2018-04-17T18:36:37.315Z,63.33
2018-04-17T18:39:05.029Z,63.49
2018-04-17T18:41:32.667Z,63.55
2018-04-17T18:44:00.304Z,64.10
2018-04-17T18:46:27.918Z,63.66
2018-04-17T18:48:55.531Z,63.42
2018-04-17T18:51:23.373Z,63.30
2018-04-17T18:53:51.021Z,63.50
2018-04-17T18:56:18.612Z,62.97
2018-04-17T18:58:46.264Z,63.24
2018-04-17T19:01:13.853Z,63.14
2018-04-17T19:03:41.443Z,63.28
2018-04-17T19:06:09.118Z,63.40
2018-04-17T19:08:36.813Z,62.85
2018-04-17T19:11:04.405Z,62.78
2018-04-17T19:13:32.048Z,62.51
2018-04-17T19:15:59.686Z,62.67
2018-04-17T19:18:27.325Z,62.78
2018-04-17T19:20:54.956Z,62.54
2018-04-17T19:23:22.531Z,63.09
2018-04-17T19:25:51.029Z,62.62
2018-04-17T19:28:19.788Z,60.92
2018-04-17T19:30:48.175Z,61.08
2018-04-17T19:33:15.836Z,61.32
2018-04-17T19:35:43.589Z,61.37
2018-04-17T19:38:11.257Z,61.16
2018-04-17T19:40:38.904Z,60.82
2018-04-17T19:43:06.571Z,60.79
2018-04-17T19:45:34.211Z,58.81
2018-04-17T19:48:02.348Z,58.65
2018-04-17T19:50:30.072Z,57.93
2018-04-17T19:52:58.427Z,56.48
2018-04-17T19:55:26.009Z,56.59
2018-04-17T19:57:53.651Z,56.62
2018-04-17T20:00:21.426Z,57.04
2018-04-17T20:02:49.068Z,57.89
2018-04-17T20:05:16.878Z,56.89
2018-04-17T20:07:45.356Z,58.26
2018-04-17T20:10:12.997Z,57.95
2018-04-17T20:12:40.645Z,57.51
2018-04-17T20:15:08.240Z,57.53
2018-04-17T20:17:35.819Z,58.41
2018-04-17T20:20:03.589Z,58.74
2018-04-17T20:22:31.223Z,58.92
2018-04-17T20:24:58.869Z,58.93
2018-04-17T20:27:26.560Z,59.50
2018-04-17T20:29:54.139Z,59.80
2018-04-17T20:32:21.724Z,59.69
2018-04-17T20:34:49.369Z,60.54
2018-04-17T20:37:16.985Z,60.78
2018-04-17T20:39:44.569Z,61.53
2018-04-17T20:42:12.530Z,61.80
2018-04-17T20:44:40.241Z,61.74
2018-04-17T20:47:07.892Z,61.06
2018-04-17T20:49:35.712Z,61.58
2018-04-17T20:52:03.363Z,62.22
2018-04-17T20:54:31.118Z,62.38
2018-04-17T20:56:58.796Z,62.86
2018-04-17T20:59:26.466Z,62.65
2018-04-17T21:01:54.086Z,63.09
2018-04-17T21:04:21.810Z,62.88
2018-04-17T21:06:49.403Z,63.32
2018-04-17T21:09:17.003Z,63.15
2018-04-17T21:11:44.645Z,63.74
2018-04-17T21:14:12.269Z,64.11
2018-04-17T21:16:39.857Z,64.16
2018-04-17T21:19:09.572Z,64.41
2018-04-17T21:21:37.228Z,64.46
2018-04-17T21:24:04.815Z,64.94
2018-04-17T21:26:32.589Z,64.48
2018-04-17T21:29:00.185Z,65.41
2018-04-17T21:31:27.866Z,65.53
2018-04-17T21:33:55.616Z,65.40
2018-04-17T21:36:23.184Z,65.43
2018-04-17T21:38:50.779Z,65.79
2018-04-17T21:41:18.454Z,65.32
2018-04-17T21:43:46.028Z,65.54
2018-04-17T21:46:13.600Z,65.90
2018-04-17T21:48:41.215Z,65.80
2018-04-17T21:51:08.856Z,65.91
2018-04-17T21:53:36.549Z,65.85
2018-04-17T21:56:04.395Z,66.28
2018-04-17T21:58:32.000Z,66.64
2018-04-17T22:00:59.571Z,66.92
2018-04-17T22:03:27.271Z,67.46
2018-04-17T22:05:54.859Z,67.65
2018-04-17T22:08:22.429Z,67.73
2018-04-17T22:10:50.160Z,68.19
2018-04-17T22:13:17.727Z,68.06
2018-04-17T22:15:45.381Z,68.44
2018-04-17T22:18:12.997Z,68.59
2018-04-17T22:20:40.608Z,68.59
2018-04-17T22:23:08.212Z,68.82
2018-04-17T22:25:35.951Z,68.91
2018-04-17T22:28:03.547Z,68.73
2018-04-17T22:30:31.120Z,68.91
2018-04-17T22:32:58.824Z,69.44
2018-04-17T22:35:26.466Z,68.65
2018-04-17T22:37:54.130Z,68.47
2018-04-17T22:40:21.859Z,68.39
2018-04-17T22:42:49.454Z,68.09
2018-04-17T22:45:17.056Z,68.19
2018-04-17T22:47:44.796Z,67.92
2018-04-17T22:50:12.457Z,68.06
2018-04-17T22:52:40.624Z,68.45
2018-04-17T22:55:08.284Z,67.59
2018-04-17T22:57:35.928Z,67.09
2018-04-17T23:00:03.581Z,67.42
2018-04-17T23:02:31.182Z,67.67
2018-04-17T23:04:58.747Z,67.92
2018-04-17T23:07:26.324Z,67.76
2018-04-17T23:09:54.033Z,68.00
2018-04-17T23:12:21.617Z,67.88
2018-04-17T23:14:49.190Z,67.72
2018-04-17T23:17:16.830Z,67.94
2018-04-17T23:19:44.457Z,67.09
2018-04-17T23:22:14.712Z,67.24
2018-04-17T23:24:42.420Z,67.13
2018-04-17T23:27:10.010Z,67.16
2018-04-17T23:29:37.600Z,67.10
2018-04-17T23:32:05.236Z,66.38
2018-04-17T23:34:32.815Z,66.21
2018-04-17T23:37:00.393Z,66.24
2018-04-17T23:39:28.129Z,66.35
2018-04-17T23:41:55.712Z,66.39
2018-04-17T23:44:23.292Z,66.41
2018-04-17T23:46:51.016Z,67.23
2018-04-17T23:49:18.645Z,67.27
2018-04-17T23:51:46.265Z,67.14
2018-04-17T23:54:13.891Z,66.87
2018-04-17T23:56:41.464Z,67.09
2018-04-17T23:59:09.111Z,67.38
